Time;durP1;ratioP1;P1;durP2;ratioP2;P2;SDS_P1;SDS_P2;PMS_P1;PMS_P2;Temp;Humidity;BMP_temperature;BMP_pressure;BME280_temperature;BME280_humidity;BME280_pressure;Samples;Min_cycle;Max_cycle;Signal;HPM_P1;HPM_P2
2022/03/19 00:01:00;;;;;;;15.27;8.35;;;9.60;99.90;;;;;;5041454;28;20474;-78
2022/03/19 00:03:27;;;;;;;12.65;8.20;;;9.60;99.90;;;;;;5035707;28;20028;-78
2022/03/19 00:05:53;;;;;;;15.85;8.27;;;9.60;99.90;;;;;;5043164;28;20465;-78
2022/03/19 00:08:19;;;;;;;16.08;9.43;;;9.60;99.90;;;;;;5047319;28;20045;-78
2022/03/19 00:10:45;;;;;;;16.92;9.20;;;9.50;99.90;;;;;;5041673;28;20070;-78
2022/03/19 00:13:11;;;;;;;14.38;9.52;;;9.50;99.90;;;;;;5036856;28;20458;-78
2022/03/19 00:15:37;;;;;;;12.38;8.23;;;9.60;99.90;;;;;;5045351;28;20036;-78
2022/03/19 00:18:03;;;;;;;10.52;8.68;;;9.50;99.90;;;;;;5035772;28;20068;-79
2022/03/19 00:20:30;;;;;;;16.98;9.20;;;9.50;99.90;;;;;;5038501;28;20681;-79
2022/03/19 00:22:55;;;;;;;15.00;9.27;;;9.50;99.90;;;;;;5024685;28;20018;-78
2022/03/19 00:25:21;;;;;;;15.18;9.77;;;9.50;99.90;;;;;;5035312;28;20445;-78
2022/03/19 00:27:47;;;;;;;16.08;9.23;;;9.40;99.90;;;;;;5035649;28;20107;-78
2022/03/19 00:30:13;;;;;;;11.00;8.15;;;9.30;99.90;;;;;;5042965;28;20047;-78
2022/03/19 00:32:39;;;;;;;12.52;8.32;;;9.40;99.90;;;;;;5039964;28;20025;-78
2022/03/19 00:35:06;;;;;;;14.95;9.10;;;9.30;99.90;;;;;;5046097;28;20139;-78
2022/03/19 00:37:40;;;;;;;13.80;9.15;;;9.30;99.90;;;;;;5046439;28;20540;-78
2022/03/19 00:40:07;;;;;;;16.08;9.38;;;9.30;99.90;;;;;;5036024;28;20025;-79
2022/03/19 00:42:33;;;;;;;16.00;8.88;;;9.30;99.90;;;;;;5033253;28;20090;-79
2022/03/19 00:44:59;;;;;;;16.58;9.35;;;9.30;99.90;;;;;;5038332;28;20026;-79
2022/03/19 00:47:24;;;;;;;18.67;9.50;;;9.30;99.90;;;;;;5029753;28;20029;-78
2022/03/19 00:49:50;;;;;;;16.88;9.88;;;9.20;99.90;;;;;;5040509;28;20482;-79
2022/03/19 00:52:15;;;;;;;14.05;9.18;;;9.20;99.90;;;;;;5030721;28;20543;-79
2022/03/19 00:54:41;;;;;;;22.08;10.35;;;9.30;99.90;;;;;;5041600;28;20021;-79
2022/03/19 00:57:07;;;;;;;17.27;10.07;;;9.30;99.90;;;;;;5034881;28;20493;-79
2022/03/19 00:59:32;;;;;;;14.45;10.07;;;9.30;99.90;;;;;;5026821;28;20025;-79
2022/03/19 01:01:58;;;;;;;15.82;9.95;;;9.30;99.90;;;;;;5038925;28;20032;-78
2022/03/19 01:04:24;;;;;;;19.10;10.70;;;9.30;99.90;;;;;;5044745;28;20025;-79
2022/03/19 01:06:49;;;;;;;15.10;9.93;;;9.20;99.90;;;;;;5036677;28;20451;-79
2022/03/19 01:09:15;;;;;;;16.52;11.50;;;9.20;99.90;;;;;;5033007;28;20045;-79
2022/03/19 01:11:40;;;;;;;13.93;11.02;;;9.30;99.90;;;;;;5050494;28;20428;-79
2022/03/19 01:14:07;;;;;;;16.45;10.65;;;9.30;99.90;;;;;;5045700;28;20024;-79
2022/03/19 01:16:33;;;;;;;15.32;10.27;;;9.20;99.90;;;;;;5048655;28;20482;-79
2022/03/19 01:18:58;;;;;;;16.42;10.80;;;9.20;99.90;;;;;;5044960;28;20108;-79
2022/03/19 01:21:24;;;;;;;13.27;9.90;;;9.20;99.90;;;;;;5041018;28;20367;-79
2022/03/19 01:23:50;;;;;;;16.80;9.90;;;9.10;99.90;;;;;;5041726;28;20425;-79
2022/03/19 01:26:15;;;;;;;16.25;9.60;;;9.10;99.90;;;;;;5041123;28;20026;-79
2022/03/19 01:28:41;;;;;;;13.45;9.88;;;9.10;99.90;;;;;;5033492;28;20500;-78
2022/03/19 01:31:07;;;;;;;17.52;9.73;;;9.00;99.90;;;;;;5045437;28;20025;-77
2022/03/19 01:33:32;;;;;;;22.20;9.98;;;9.00;99.90;;;;;;5025917;28;20033;-78
2022/03/19 01:35:58;;;;;;;26.08;10.50;;;9.00;99.90;;;;;;5040217;28;20025;-78
2022/03/19 01:38:24;;;;;;;16.17;10.43;;;8.90;99.90;;;;;;5026961;28;20022;-78
2022/03/19 01:40:49;;;;;;;15.77;10.32;;;8.90;99.90;;;;;;5035786;28;20030;-78
2022/03/19 01:43:15;;;;;;;15.68;9.95;;;8.80;99.90;;;;;;5041181;28;20024;-78
2022/03/19 01:45:40;;;;;;;22.02;10.07;;;8.70;99.90;;;;;;5030118;28;20429;-78
2022/03/19 01:48:06;;;;;;;16.55;10.15;;;8.70;99.90;;;;;;5030798;28;20137;-78
2022/03/19 01:50:32;;;;;;;16.08;10.02;;;8.60;99.90;;;;;;5027423;28;20041;-78
2022/03/19 01:52:58;;;;;;;13.88;9.23;;;8.70;99.90;;;;;;5038417;28;20026;-79
2022/03/19 01:55:26;;;;;;;16.08;10.23;;;8.70;99.90;;;;;;5032050;28;20397;-78
2022/03/19 01:57:52;;;;;;;17.05;9.77;;;8.60;99.90;;;;;;5037371;28;20394;-78
2022/03/19 02:00:22;;;;;;;17.65;10.50;;;8.60;99.90;;;;;;5037557;28;20032;-78
2022/03/19 02:02:50;;;;;;;15.20;10.05;;;8.60;99.90;;;;;;5041280;28;20028;-78
2022/03/19 02:05:23;;;;;;;16.05;10.23;;;8.60;99.90;;;;;;5038481;28;20385;-78
2022/03/19 02:07:50;;;;;;;15.77;10.68;;;8.50;99.90;;;;;;5035119;28;20461;-78
2022/03/19 02:10:18;;;;;;;15.63;10.38;;;8.50;99.90;;;;;;5039173;28;20075;-78
2022/03/19 02:12:44;;;;;;;21.52;11.30;;;8.50;99.90;;;;;;5029575;28;20022;-78
2022/03/19 02:15:11;;;;;;;16.77;11.25;;;8.50;99.90;;;;;;5034139;28;20071;-78
2022/03/19 02:17:37;;;;;;;14.93;11.10;;;8.40;99.90;;;;;;5047005;28;20052;-78
2022/03/19 02:20:04;;;;;;;19.70;10.77;;;8.40;99.90;;;;;;5033454;28;20029;-77
2022/03/19 02:22:30;;;;;;;22.33;12.93;;;8.30;99.90;;;;;;5031019;28;20134;-77
2022/03/19 02:27:41;;;;;;;22.95;13.13;;;8.20;99.90;;;;;;5032140;28;20099;-77
2022/03/19 02:30:10;;;;;;;17.83;12.80;;;8.20;99.90;;;;;;5028503;28;20053;-77
2022/03/19 02:32:38;;;;;;;16.05;11.82;;;8.20;99.90;;;;;;5039250;28;20082;-77
2022/03/19 02:35:05;;;;;;;18.63;11.32;;;8.20;99.90;;;;;;5037715;28;20082;-77
2022/03/19 02:37:42;;;;;;;21.50;11.93;;;8.20;99.90;;;;;;5032222;28;20377;-77
2022/03/19 02:40:19;;;;;;;21.27;12.20;;;8.00;99.90;;;;;;5031875;28;20030;-77
2022/03/19 02:42:52;;;;;;;17.45;12.23;;;8.00;99.90;;;;;;5024029;28;20068;-77
2022/03/19 02:45:21;;;;;;;;;;;8.10;99.90;;;;;;5036555;28;20031;-77
2022/03/19 02:47:59;;;;;;;19.00;12.93;;;8.10;99.90;;;;;;5046559;28;19930;-77
2022/03/19 02:50:27;;;;;;;19.38;12.38;;;8.00;99.90;;;;;;5023343;28;20033;-77
2022/03/19 02:52:53;;;;;;;21.83;12.43;;;7.90;99.90;;;;;;5039610;28;20052;-77
2022/03/19 02:55:19;;;;;;;23.17;13.40;;;7.80;99.90;;;;;;5031941;28;20025;-76
2022/03/19 02:57:45;;;;;;;18.35;12.32;;;7.80;99.90;;;;;;5032811;28;20041;-77
2022/03/19 03:00:11;;;;;;;23.77;12.95;;;7.80;99.90;;;;;;5040809;28;20521;-77
2022/03/19 03:02:37;;;;;;;19.52;12.77;;;7.70;99.90;;;;;;5046789;28;20032;-77
2022/03/19 03:05:03;;;;;;;21.98;13.98;;;7.70;99.90;;;;;;5034310;28;20025;-76
2022/03/19 03:07:28;;;;;;;24.95;13.93;;;7.70;99.90;;;;;;5029529;28;20028;-77
2022/03/19 03:09:54;;;;;;;24.70;14.27;;;7.70;99.90;;;;;;5033307;28;20033;-77
2022/03/19 03:12:20;;;;;;;16.33;12.77;;;7.80;99.90;;;;;;5031870;28;20092;-76
2022/03/19 03:14:45;;;;;;;22.15;12.98;;;7.70;99.90;;;;;;5034977;28;20032;-76
2022/03/19 03:17:11;;;;;;;21.88;12.60;;;7.70;99.90;;;;;;5032864;28;20034;-77
2022/03/19 03:19:37;;;;;;;19.85;13.38;;;7.80;99.90;;;;;;5043372;28;20025;-77
2022/03/19 03:22:03;;;;;;;22.65;13.05;;;7.70;99.90;;;;;;5035585;28;20026;-77
2022/03/19 03:24:29;;;;;;;22.02;13.77;;;7.70;99.90;;;;;;5030693;28;20594;-76
2022/03/19 03:26:55;;;;;;;22.25;12.43;;;7.70;99.90;;;;;;5027113;28;20029;-77
2022/03/19 03:29:21;;;;;;;23.70;14.43;;;7.60;99.90;;;;;;5038560;28;20076;-77
2022/03/19 03:31:46;;;;;;;23.77;13.88;;;7.60;99.90;;;;;;5040575;28;20389;-77
2022/03/19 03:34:12;;;;;;;24.90;14.68;;;7.60;99.90;;;;;;5042706;28;20033;-77
2022/03/19 03:36:38;;;;;;;24.75;16.13;;;7.70;99.90;;;;;;5044696;28;20061;-77
2022/03/19 03:39:04;;;;;;;24.75;15.55;;;7.70;99.90;;;;;;5051832;28;20031;-76
2022/03/19 03:41:30;;;;;;;23.38;16.40;;;7.60;99.90;;;;;;5025492;28;20038;-76
2022/03/19 03:43:56;;;;;;;23.05;15.25;;;7.60;99.90;;;;;;5041214;28;20026;-77
2022/03/19 03:46:21;;;;;;;28.05;16.38;;;7.50;99.90;;;;;;5039685;28;20078;-77
2022/03/19 03:48:47;;;;;;;27.73;15.65;;;7.50;99.90;;;;;;5035349;28;20044;-77
2022/03/19 03:51:13;;;;;;;23.27;14.93;;;7.50;99.90;;;;;;5022652;28;20036;-77
2022/03/19 03:53:40;;;;;;;23.13;13.80;;;7.40;99.90;;;;;;5033613;28;20476;-77
2022/03/19 03:56:08;;;;;;;19.48;14.95;;;7.50;99.90;;;;;;5032601;28;20018;-77
2022/03/19 03:58:34;;;;;;;23.80;16.17;;;7.40;99.90;;;;;;5051105;28;20504;-76
2022/03/19 04:01:00;;;;;;;24.58;16.50;;;7.50;99.90;;;;;;5042307;28;20060;-77
2022/03/19 04:03:26;;;;;;;29.35;17.42;;;7.40;99.90;;;;;;5043907;28;20381;-77
2022/03/19 04:05:51;;;;;;;26.90;17.15;;;7.40;99.90;;;;;;5039827;28;20029;-77
2022/03/19 04:08:17;;;;;;;29.17;17.15;;;7.40;99.90;;;;;;5036687;28;20025;-77
2022/03/19 04:10:43;;;;;;;26.85;16.85;;;7.40;99.90;;;;;;5032011;28;20056;-77
2022/03/19 04:13:09;;;;;;;25.98;17.50;;;7.40;99.90;;;;;;5034867;28;20070;-77
2022/03/19 04:15:35;;;;;;;30.25;17.90;;;7.30;99.90;;;;;;5038293;28;20108;-77
2022/03/19 04:18:03;;;;;;;32.95;17.70;;;7.40;99.90;;;;;;5040737;28;20028;-77
2022/03/19 04:20:29;;;;;;;26.92;17.23;;;7.40;99.90;;;;;;5039546;28;20044;-77
2022/03/19 04:22:55;;;;;;;26.65;17.83;;;7.30;99.90;;;;;;5025489;28;20030;-77
2022/03/19 04:25:22;;;;;;;26.60;16.50;;;7.30;99.90;;;;;;5040404;28;20036;-77
2022/03/19 04:27:51;;;;;;;24.33;17.33;;;7.30;99.90;;;;;;5041349;28;20025;-77
2022/03/19 04:30:18;;;;;;;23.95;16.85;;;7.40;99.90;;;;;;5053690;28;20044;-77
2022/03/19 04:32:47;;;;;;;29.98;18.38;;;7.30;99.90;;;;;;5036776;28;20026;-77
2022/03/19 04:38:05;;;;;;;27.50;17.90;;;7.20;99.90;;;;;;5044943;28;20090;-77
2022/03/19 04:40:31;;;;;;;26.73;16.20;;;7.20;99.90;;;;;;5035468;28;20024;-77
2022/03/19 04:42:57;;;;;;;25.73;17.63;;;7.20;99.90;;;;;;5042603;28;20504;-76
2022/03/19 04:45:24;;;;;;;31.80;17.25;;;7.20;99.90;;;;;;5041565;28;20034;-76
2022/03/19 04:47:50;;;;;;;22.95;16.15;;;7.20;99.90;;;;;;5034594;28;20026;-77
2022/03/19 04:50:16;;;;;;;28.17;17.60;;;7.20;99.90;;;;;;5045915;28;20056;-76
2022/03/19 04:52:42;;;;;;;26.90;16.17;;;7.20;99.90;;;;;;5047243;28;20466;-77
2022/03/19 04:55:09;;;;;;;27.17;18.58;;;7.20;99.90;;;;;;5041865;28;20069;-77
2022/03/19 04:57:38;;;;;;;24.75;16.83;;;7.10;99.90;;;;;;5039517;28;20014;-76
2022/03/19 05:00:06;;;;;;;27.33;17.67;;;7.10;99.90;;;;;;5040254;28;20065;-77
2022/03/19 05:02:32;;;;;;;27.25;17.60;;;7.10;99.90;;;;;;5034125;28;20067;-77
2022/03/19 05:04:57;;;;;;;26.27;17.77;;;7.10;99.90;;;;;;5032048;28;20368;-78
2022/03/19 05:07:25;;;;;;;31.15;20.23;;;7.10;99.90;;;;;;5034552;28;20056;-77
2022/03/19 05:12:40;;;;;;;26.48;16.42;;;7.20;99.90;;;;;;5032833;28;20121;-77
2022/03/19 05:15:10;;;;;;;27.48;17.00;;;7.10;99.90;;;;;;5033834;28;20493;-78
2022/03/19 05:17:35;;;;;;;26.02;15.55;;;7.10;99.90;;;;;;5040190;28;20028;-77
2022/03/19 05:20:01;;;;;;;26.23;17.02;;;7.10;99.90;;;;;;5039707;28;20034;-77
2022/03/19 05:22:29;;;;;;;25.73;16.60;;;7.10;99.90;;;;;;5046349;28;20158;-77
2022/03/19 05:24:58;;;;;;;33.03;17.17;;;7.10;99.90;;;;;;5037514;28;20449;-77
2022/03/19 05:27:25;;;;;;;31.33;19.85;;;7.10;99.90;;;;;;5040460;28;20025;-76
2022/03/19 05:29:51;;;;;;;25.13;16.92;;;7.00;99.90;;;;;;5041743;28;20146;-76
2022/03/19 05:32:18;;;;;;;24.98;17.90;;;7.00;99.90;;;;;;5045766;28;20531;-77
2022/03/19 05:34:44;;;;;;;29.65;17.25;;;7.00;99.90;;;;;;5029033;28;20033;-78
2022/03/19 05:37:11;;;;;;;29.83;17.77;;;7.00;99.90;;;;;;5037925;28;20079;-77
2022/03/19 05:39:37;;;;;;;32.47;17.42;;;7.00;99.90;;;;;;5036668;28;20515;-77
2022/03/19 05:42:04;;;;;;;28.88;16.42;;;7.00;99.90;;;;;;5046413;28;20029;-76
2022/03/19 05:44:29;;;;;;;31.27;15.93;;;7.00;99.90;;;;;;5042708;28;20029;-77
2022/03/19 05:46:58;;;;;;;25.05;15.23;;;6.90;99.90;;;;;;5032655;28;20482;-77
2022/03/19 05:49:24;;;;;;;26.17;15.43;;;6.80;99.90;;;;;;5037538;28;20492;-76
2022/03/19 05:51:50;;;;;;;25.73;16.55;;;6.80;99.90;;;;;;5035170;28;20032;-76
2022/03/19 05:54:15;;;;;;;27.50;16.17;;;6.80;99.90;;;;;;5042652;28;20108;-76
2022/03/19 05:56:41;;;;;;;25.35;16.77;;;6.80;99.90;;;;;;5039423;28;20089;-76
2022/03/19 05:59:07;;;;;;;29.42;18.48;;;6.80;99.90;;;;;;5040408;28;20026;-76
2022/03/19 06:01:33;;;;;;;24.33;17.73;;;6.80;99.90;;;;;;5050169;28;20135;-75
2022/03/19 06:03:59;;;;;;;25.30;15.85;;;6.90;99.90;;;;;;5040566;28;20448;-76
2022/03/19 06:06:26;;;;;;;29.92;18.05;;;6.80;99.90;;;;;;5041142;28;20124;-77
2022/03/19 06:08:52;;;;;;;27.23;15.75;;;6.90;99.90;;;;;;5040883;28;20041;-77
2022/03/19 06:11:18;;;;;;;28.70;16.95;;;6.80;99.90;;;;;;5035286;28;20108;-76
2022/03/19 06:13:44;;;;;;;27.35;16.48;;;6.80;99.90;;;;;;5043029;28;20113;-76
2022/03/19 06:16:09;;;;;;;27.95;16.10;;;6.80;99.90;;;;;;5041603;28;20462;-76
2022/03/19 06:18:35;;;;;;;27.00;17.63;;;6.90;99.90;;;;;;5037759;28;20021;-76
2022/03/19 06:21:01;;;;;;;27.73;17.67;;;6.90;99.90;;;;;;5039260;28;20108;-76
2022/03/19 06:23:27;;;;;;;25.85;17.90;;;6.90;99.90;;;;;;5053376;28;20036;-76
2022/03/19 06:25:53;;;;;;;30.13;17.15;;;7.00;99.90;;;;;;5040808;28;20025;-76
2022/03/19 06:28:19;;;;;;;32.55;15.88;;;6.90;99.90;;;;;;5037166;28;20048;-76
2022/03/19 06:30:45;;;;;;;25.90;16.52;;;6.90;99.90;;;;;;5046902;28;20025;-76
2022/03/19 06:33:13;;;;;;;26.05;16.80;;;7.10;99.90;;;;;;5040936;28;20040;-77
2022/03/19 06:38:26;;;;;;;24.15;15.85;;;7.20;99.90;;;;;;5028477;28;20045;-77
2022/03/19 06:40:52;;;;;;;25.30;16.85;;;7.10;99.90;;;;;;5037912;28;20033;-77
2022/03/19 06:43:18;;;;;;;24.58;14.98;;;7.20;99.90;;;;;;5036873;28;20029;-76
2022/03/19 06:45:43;;;;;;;23.55;15.25;;;7.20;99.90;;;;;;5042886;28;20469;-76
2022/03/19 06:48:09;;;;;;;28.52;17.17;;;7.10;99.90;;;;;;5024033;28;20088;-77
2022/03/19 06:50:35;;;;;;;23.33;16.40;;;7.20;99.90;;;;;;5035873;28;20034;-77
2022/03/19 06:53:04;;;;;;;32.92;17.13;;;7.20;99.90;;;;;;5038162;28;20039;-77
2022/03/19 06:55:32;;;;;;;28.40;17.60;;;7.30;99.90;;;;;;5049379;28;20466;-77
2022/03/19 06:57:58;;;;;;;26.38;16.00;;;7.40;99.90;;;;;;5043116;28;20032;-76
2022/03/19 07:00:24;;;;;;;26.08;15.57;;;7.40;99.90;;;;;;5041436;28;20018;-77
2022/03/19 07:02:52;;;;;;;22.92;14.70;;;7.40;99.90;;;;;;5031110;28;20416;-76
2022/03/19 07:05:27;;;;;;;27.70;15.05;;;7.50;99.90;;;;;;5045914;28;20077;-76
2022/03/19 07:07:55;;;;;;;24.98;14.90;;;7.50;99.90;;;;;;5032649;28;20024;-76
2022/03/19 07:10:21;;;;;;;30.13;15.48;;;7.60;99.90;;;;;;5044974;28;20061;-76
2022/03/19 07:12:49;;;;;;;22.02;15.00;;;7.70;99.90;;;;;;5039471;28;20059;-76
2022/03/19 07:15:17;;;;;;;20.63;13.77;;;7.70;99.90;;;;;;5038221;28;20499;-76
2022/03/19 07:17:43;;;;;;;26.23;14.75;;;7.60;99.90;;;;;;5035957;28;20725;-75
2022/03/19 07:20:11;;;;;;;24.30;14.80;;;7.70;99.90;;;;;;5046119;28;20104;-77
2022/03/19 07:22:53;;;;;;;23.20;15.35;;;7.80;99.90;;;;;;5042204;28;20033;-76
2022/03/19 07:25:22;;;;;;;27.02;16.55;;;7.90;99.90;;;;;;5031506;28;20116;-77
2022/03/19 07:27:49;;;;;;;27.92;15.85;;;7.80;99.90;;;;;;5028559;28;20460;-76
2022/03/19 07:30:15;;;;;;;23.13;14.63;;;8.00;99.90;;;;;;5037945;28;20037;-77
2022/03/19 07:32:41;;;;;;;27.85;14.48;;;8.10;99.90;;;;;;5044214;28;20493;-78
2022/03/19 07:35:07;;;;;;;21.50;13.48;;;8.10;99.90;;;;;;5037351;28;20355;-80
2022/03/19 07:37:33;;;;;;;23.75;13.07;;;8.20;99.90;;;;;;5032010;28;20624;-78
2022/03/19 07:40:00;;;;;;;25.10;13.70;;;8.20;99.90;;;;;;5031866;28;20035;-79
2022/03/19 07:42:26;;;;;;;22.35;13.68;;;8.20;99.90;;;;;;5041410;28;20527;-79
2022/03/19 07:44:53;;;;;;;26.27;15.10;;;8.30;99.90;;;;;;5030447;28;20065;-79
2022/03/19 07:47:19;;;;;;;21.23;13.15;;;8.40;99.90;;;;;;5044281;28;20158;-79
2022/03/19 07:49:44;;;;;;;23.92;13.80;;;8.50;99.90;;;;;;4996004;28;1112738;-79
2022/03/19 07:52:11;;;;;;;21.92;14.70;;;8.50;99.90;;;;;;5025005;28;20026;-79
2022/03/19 07:54:37;;;;;;;23.88;12.93;;;8.70;99.90;;;;;;5033267;28;20021;-79
2022/03/19 07:57:07;;;;;;;21.60;12.93;;;8.70;99.90;;;;;;5038879;28;20033;-79
2022/03/19 07:59:33;;;;;;;21.30;13.32;;;8.80;99.90;;;;;;5035360;28;20043;-78
2022/03/19 08:02:00;;;;;;;24.60;14.07;;;8.90;99.90;;;;;;5028651;28;20431;-78
2022/03/19 08:04:26;;;;;;;28.17;14.05;;;9.00;99.90;;;;;;5027667;28;20053;-80
2022/03/19 08:06:55;;;;;;;20.30;12.63;;;9.10;99.90;;;;;;5031662;28;20060;-78
2022/03/19 08:09:22;;;;;;;23.35;13.32;;;9.20;99.90;;;;;;5040680;28;20038;-79
2022/03/19 08:11:49;;;;;;;19.55;12.20;;;9.30;99.90;;;;;;5045613;28;20109;-78
2022/03/19 08:14:15;;;;;;;20.58;12.82;;;9.50;99.90;;;;;;5036229;28;20029;-80
2022/03/19 08:16:41;;;;;;;18.33;11.65;;;9.60;99.90;;;;;;5037884;28;20178;-79
2022/03/19 08:19:08;;;;;;;19.60;11.15;;;9.80;99.90;;;;;;5038394;28;20397;-80
2022/03/19 08:21:33;;;;;;;19.10;11.80;;;9.80;99.90;;;;;;5036012;28;20524;-80
2022/03/19 08:23:59;;;;;;;18.42;11.23;;;10.00;99.90;;;;;;5024048;28;20029;-79
2022/03/19 08:26:25;;;;;;;18.33;10.88;;;10.10;99.90;;;;;;5033270;28;20033;-80
2022/03/19 08:28:51;;;;;;;19.85;11.43;;;10.10;99.90;;;;;;5037764;28;20048;-79
2022/03/19 08:31:16;;;;;;;18.58;11.20;;;10.30;99.90;;;;;;5035867;28;20021;-80
2022/03/19 08:33:42;;;;;;;21.02;11.18;;;10.40;99.90;;;;;;5041857;28;20120;-80
2022/03/19 08:36:08;;;;;;;15.35;9.30;;;10.40;99.90;;;;;;5042097;28;20034;-79
2022/03/19 08:41:18;;;;;;;15.88;10.27;;;10.60;99.90;;;;;;5027024;28;20040;-79
2022/03/19 08:43:44;;;;;;;26.17;10.27;;;10.70;99.90;;;;;;5030773;28;20021;-79
2022/03/19 08:46:10;;;;;;;19.63;10.38;;;10.80;99.90;;;;;;5030072;28;20092;-80
2022/03/19 08:48:36;;;;;;;18.23;9.80;;;10.80;99.90;;;;;;5034688;28;20042;-80
2022/03/19 08:53:47;;;;;;;13.27;9.20;;;11.20;99.90;;;;;;5037831;28;20028;-80
2022/03/19 08:56:13;;;;;;;20.73;10.52;;;11.40;99.90;;;;;;5037044;28;20123;-80
2022/03/19 08:58:39;;;;;;;16.83;10.02;;;11.40;99.90;;;;;;5039093;28;20545;-81
2022/03/19 09:01:05;;;;;;;15.45;8.45;;;11.50;99.90;;;;;;5040052;28;20144;-81
2022/03/19 09:03:30;;;;;;;14.93;8.80;;;11.50;99.90;;;;;;5036861;28;20083;-81
2022/03/19 09:05:56;;;;;;;21.00;9.25;;;11.50;99.90;;;;;;5033208;28;20029;-79
2022/03/19 09:08:22;;;;;;;14.20;8.57;;;11.60;99.90;;;;;;5039931;28;20076;-82
2022/03/19 09:10:48;;;;;;;16.23;9.50;;;11.60;99.90;;;;;;5036871;28;20061;-82
2022/03/19 09:13:14;;;;;;;13.68;8.02;;;11.70;99.90;;;;;;5024124;28;20539;-83
2022/03/19 09:15:40;;;;;;;17.95;8.73;;;11.90;99.90;;;;;;5042184;28;20088;-81
2022/03/19 09:18:06;;;;;;;13.00;7.90;;;11.80;99.90;;;;;;5026440;28;20025;-81
2022/03/19 09:20:32;;;;;;;14.93;8.68;;;12.10;99.90;;;;;;5035257;28;20104;-80
2022/03/19 09:22:58;;;;;;;13.90;8.65;;;12.20;99.90;;;;;;5036789;28;20018;-81
2022/03/19 09:25:24;;;;;;;13.32;8.23;;;12.10;99.90;;;;;;5037767;28;20029;-81
2022/03/19 09:27:50;;;;;;;14.68;8.00;;;12.20;99.90;;;;;;5031780;28;20025;-82
2022/03/19 09:30:15;;;;;;;15.45;8.50;;;12.30;99.90;;;;;;5030070;28;20022;-81
2022/03/19 09:32:41;;;;;;;16.48;8.38;;;12.40;99.90;;;;;;5031616;28;20018;-80
2022/03/19 09:35:08;;;;;;;16.75;9.00;;;12.50;99.90;;;;;;5034498;28;20037;-80
2022/03/19 09:37:34;;;;;;;14.35;9.32;;;12.60;99.90;;;;;;5033804;28;20039;-81
2022/03/19 09:40:00;;;;;;;18.15;9.05;;;12.70;99.90;;;;;;5034849;28;20018;-80
2022/03/19 09:42:27;;;;;;;15.00;8.95;;;12.70;99.90;;;;;;5036769;28;20018;-81
2022/03/19 09:44:53;;;;;;;16.98;8.55;;;12.80;99.90;;;;;;5032316;28;20043;-79
2022/03/19 09:47:19;;;;;;;12.32;8.40;;;13.00;99.90;;;;;;5034024;28;20029;-80
2022/03/19 09:49:44;;;;;;;12.20;8.57;;;13.10;99.90;;;;;;5030491;28;20033;-80
2022/03/19 09:52:13;;;;;;;15.25;8.95;;;13.10;99.90;;;;;;5034999;28;20388;-81
2022/03/19 09:54:39;;;;;;;18.58;8.55;;;13.10;99.90;;;;;;5036466;28;20025;-81
2022/03/19 09:57:05;;;;;;;12.93;8.38;;;13.10;99.90;;;;;;5038814;28;20021;-82
2022/03/19 09:59:31;;;;;;;15.60;7.97;;;13.10;99.90;;;;;;5032479;28;20041;-85
2022/03/19 10:01:57;;;;;;;14.68;8.13;;;13.20;99.90;;;;;;5037190;28;20110;-81
2022/03/19 10:04:23;;;;;;;13.20;8.70;;;13.40;99.90;;;;;;5036330;28;20025;-81
2022/03/19 10:09:42;;;;;;;17.60;8.52;;;13.60;99.90;;;;;;5030143;28;20088;-85
2022/03/19 10:12:22;;;;;;;11.52;7.40;;;13.70;99.90;;;;;;5034291;28;20024;-85
2022/03/19 10:14:53;;;;;;;12.30;6.78;;;13.70;99.90;;;;;;5041272;28;20501;-79
2022/03/19 10:17:35;;;;;;;11.98;7.20;;;13.70;99.90;;;;;;5033237;28;20029;-84
2022/03/19 10:20:09;;;;;;;13.65;6.97;;;13.80;99.90;;;;;;5031186;28;20108;-83
2022/03/19 10:22:40;;;;;;;13.98;7.18;;;13.70;99.90;;;;;;5027677;28;20018;-84
2022/03/19 10:25:08;;;;;;;17.30;7.70;;;13.70;99.90;;;;;;5037377;28;20358;-82
2022/03/19 10:27:35;;;;;;;14.38;7.15;;;13.60;99.90;;;;;;5039432;28;20481;-80
2022/03/19 10:30:06;;;;;;;14.20;7.25;;;13.80;99.90;;;;;;5034281;28;20037;-84
2022/03/19 10:32:31;;;;;;;12.93;5.80;;;14.10;99.90;;;;;;5030289;28;20025;-83
2022/03/19 10:34:57;;;;;;;13.80;6.13;;;14.10;99.90;;;;;;5033939;28;20482;-83
2022/03/19 10:37:41;;;;;;;10.07;5.82;;;13.90;97.80;;;;;;5028417;28;20090;-84
2022/03/19 10:40:09;;;;;;;13.50;6.25;;;14.00;98.10;;;;;;5035415;28;20017;-79
2022/03/19 10:42:39;;;;;;;11.93;6.78;;;14.20;98.60;;;;;;5041114;28;20072;-85
2022/03/19 10:45:07;;;;;;;14.40;6.22;;;14.30;99.60;;;;;;5048468;28;20029;-83
2022/03/19 10:47:44;;;;;;;11.88;5.95;;;14.30;99.90;;;;;;5033115;28;20440;-81
2022/03/19 10:50:18;;;;;;;9.98;4.78;;;14.30;99.70;;;;;;5034303;28;20435;-85
2022/03/19 10:52:46;;;;;;;11.70;5.63;;;14.30;98.40;;;;;;5036891;28;20482;-82
2022/03/19 10:55:12;;;;;;;9.68;5.32;;;14.20;98.70;;;;;;5036814;28;20055;-82
2022/03/19 10:57:38;;;;;;;12.25;5.60;;;14.30;98.20;;;;;;5038316;28;20474;-83
2022/03/19 11:00:05;;;;;;;13.13;5.75;;;14.20;96.30;;;;;;5033826;28;20044;-82
2022/03/19 11:02:32;;;;;;;14.98;6.00;;;14.40;97.20;;;;;;5040225;28;20111;-81
2022/03/19 11:04:59;;;;;;;10.05;5.78;;;14.60;97.60;;;;;;5017041;28;20037;-81
2022/03/19 11:07:27;;;;;;;13.18;5.65;;;14.40;96.60;;;;;;5039335;28;20092;-84
2022/03/19 11:09:56;;;;;;;11.82;5.45;;;14.50;97.00;;;;;;5025368;28;20044;-84
2022/03/19 11:12:27;;;;;;;20.73;6.15;;;14.80;97.70;;;;;;5034933;28;20484;-82
2022/03/19 11:14:56;;;;;;;11.57;5.75;;;14.90;96.40;;;;;;5045350;28;20092;-76
2022/03/19 11:17:36;;;;;;;12.68;5.55;;;15.10;96.70;;;;;;5037905;28;20021;-87
2022/03/19 11:20:05;;;;;;;9.68;4.45;;;15.00;94.00;;;;;;5023762;28;20029;-83
2022/03/19 11:22:39;;;;;;;9.05;4.68;;;14.90;94.40;;;;;;5037275;28;20025;-82
2022/03/19 11:25:26;;;;;;;6.85;3.65;;;14.90;93.90;;;;;;5024591;28;20036;-80
2022/03/19 11:27:59;;;;;;;7.22;3.20;;;14.90;92.10;;;;;;5036710;28;20164;-85
2022/03/19 11:30:38;;;;;;;9.30;4.07;;;15.00;92.10;;;;;;5046142;28;20040;-82
2022/03/19 11:33:16;;;;;;;6.07;3.20;;;15.20;92.40;;;;;;5035329;28;20057;-83
2022/03/19 11:35:48;;;;;;;10.23;3.33;;;15.20;91.50;;;;;;5027206;28;20120;-84
2022/03/19 11:38:21;;;;;;;6.00;2.90;;;15.40;90.50;;;;;;5039340;28;20028;-81
2022/03/19 11:40:54;;;;;;;3.50;2.50;;;15.30;87.40;;;;;;5024658;28;20557;-85
2022/03/19 11:43:32;;;;;;;10.23;2.92;;;15.30;86.50;;;;;;5037965;28;20083;-85
2022/03/19 11:46:11;;;;;;;5.70;2.63;;;15.30;82.80;;;;;;5026081;28;20034;-84
2022/03/19 11:48:37;;;;;;;6.20;3.08;;;15.30;84.10;;;;;;5034646;28;20080;-84
2022/03/19 11:51:44;;;;;;;4.90;2.72;;;15.30;78.90;;;;;;5044422;28;20492;-85
2022/03/19 11:54:17;;;;;;;6.70;2.50;;;15.40;83.80;;;;;;5026950;28;20057;-83
2022/03/19 11:56:42;;;;;;;5.00;2.55;;;15.30;78.00;;;;;;5034909;28;20025;-83
2022/03/19 11:59:23;;;;;;;7.97;2.47;;;15.50;79.20;;;;;;5032603;28;20052;-80
2022/03/19 12:01:54;;;;;;;8.82;2.47;;;15.40;75.00;;;;;;5031185;28;20029;-83
2022/03/19 12:04:21;;;;;;;6.07;2.78;;;15.40;74.20;;;;;;5034880;28;20444;-83
2022/03/19 12:06:57;;;;;;;6.10;2.53;;;15.30;75.30;;;;;;5030345;28;20010;-85
2022/03/19 12:09:35;;;;;;;3.75;2.15;;;15.40;72.00;;;;;;5025810;28;20088;-84
2022/03/19 12:12:15;;;;;;;8.68;2.30;;;15.50;80.80;;;;;;5031016;28;20022;-84
2022/03/19 12:14:42;;;;;;;6.65;2.03;;;15.70;74.20;;;;;;5041295;28;20048;-86
2022/03/19 12:17:17;;;;;;;4.80;1.83;;;15.70;76.50;;;;;;5032607;28;20356;-83
2022/03/19 12:20:00;;;;;;;6.15;2.17;;;15.70;71.80;;;;;;5033670;28;20026;-82
2022/03/19 12:22:40;;;;;;;4.70;2.13;;;15.60;72.80;;;;;;5043725;28;20040;-80
2022/03/19 12:25:30;;;;;;;3.47;2.40;;;15.80;73.70;;;;;;5039950;28;20024;-81
2022/03/19 12:27:57;;;;;;;5.85;2.10;;;15.80;70.60;;;;;;5035805;28;20500;-85
2022/03/19 12:30:25;;;;;;;4.47;2.47;;;15.80;68.50;;;;;;5043364;28;20028;-82
2022/03/19 12:32:58;;;;;;;4.82;2.42;;;15.70;71.50;;;;;;5039760;28;20072;-82
2022/03/19 12:35:47;;;;;;;10.90;2.67;;;16.00;70.90;;;;;;5033020;28;20041;-83
2022/03/19 12:38:27;;;;;;;6.00;1.95;;;15.90;70.50;;;;;;5045892;28;20022;-85
2022/03/19 12:43:38;;;;;;;4.25;1.80;;;15.80;68.10;;;;;;5039404;28;20113;-82
2022/03/19 12:46:05;;;;;;;7.63;2.58;;;15.90;64.20;;;;;;5040200;28;20036;-83
2022/03/19 12:48:32;;;;;;;7.22;2.00;;;16.10;66.70;;;;;;5038987;28;20037;-81
2022/03/19 12:50:59;;;;;;;9.15;1.83;;;16.00;63.10;;;;;;5030390;28;20025;-84
2022/03/19 12:53:37;;;;;;;3.20;1.63;;;15.90;69.70;;;;;;5032512;28;20037;-83
2022/03/19 12:56:14;;;;;;;3.60;1.40;;;15.80;58.90;;;;;;5034041;28;20028;-82
2022/03/19 12:58:43;;;;;;;8.18;1.80;;;15.70;60.20;;;;;;5037751;28;20036;-82
2022/03/19 13:01:17;;;;;;;4.45;1.60;;;15.60;59.30;;;;;;5039680;28;20107;-83
2022/03/19 13:03:43;;;;;;;4.40;1.90;;;15.60;63.90;;;;;;5041253;28;20064;-82